createdAt,value
2017-09-24T00:01:09.217Z,28.13
2017-09-24T00:03:37.527Z,30.27
2017-09-24T00:06:05.874Z,22.17
2017-09-24T00:08:34.948Z,23.53
2017-09-24T00:11:03.264Z,25.30
2017-09-24T00:13:31.581Z,26.63
2017-09-24T00:15:59.890Z,24.10
2017-09-24T00:18:28.225Z,27.83
2017-09-24T00:20:56.530Z,26.00
2017-09-24T00:23:24.860Z,23.40
2017-09-24T00:25:53.172Z,21.23
2017-09-24T00:28:21.520Z,24.10
2017-09-24T00:30:49.825Z,28.00
2017-09-24T00:33:18.166Z,24.73
2017-09-24T00:35:46.485Z,24.33
2017-09-24T00:38:14.788Z,22.07
2017-09-24T00:40:43.139Z,22.27
2017-09-24T00:43:11.457Z,23.30
2017-09-24T00:45:40.558Z,27.17
2017-09-24T00:48:08.913Z,25.70
2017-09-24T00:50:37.254Z,23.07
2017-09-24T00:53:05.565Z,24.47
2017-09-24T00:55:33.905Z,21.77
2017-09-24T00:58:02.217Z,21.27
2017-09-24T01:00:30.562Z,21.67
2017-09-24T01:02:58.893Z,24.97
2017-09-24T01:05:27.206Z,25.80
2017-09-24T01:07:55.713Z,26.30
2017-09-24T01:10:24.037Z,22.77
2017-09-24T01:12:53.114Z,25.67
2017-09-24T01:15:21.423Z,23.53
2017-09-24T01:17:50.515Z,29.23
2017-09-24T01:20:18.838Z,26.10
2017-09-24T01:22:47.169Z,25.80
2017-09-24T01:25:16.232Z,28.60
2017-09-24T01:27:44.544Z,27.90
2017-09-24T01:30:13.644Z,27.90
2017-09-24T01:32:41.949Z,29.10
2017-09-24T01:35:10.263Z,29.40
2017-09-24T01:37:38.570Z,29.67
2017-09-24T01:40:06.889Z,27.00
2017-09-24T01:42:35.192Z,33.33
2017-09-24T01:45:03.521Z,33.63
2017-09-24T01:47:31.828Z,30.10
2017-09-24T01:50:00.135Z,34.13
2017-09-24T01:52:28.449Z,42.73
2017-09-24T01:54:56.763Z,34.93
2017-09-24T01:57:25.068Z,35.17
2017-09-24T01:59:53.381Z,35.60
2017-09-24T02:02:21.697Z,30.27
2017-09-24T02:04:50.006Z,27.30
2017-09-24T02:07:19.077Z,33.70
2017-09-24T02:09:47.369Z,26.80
2017-09-24T02:12:15.696Z,25.90
2017-09-24T02:14:43.989Z,33.40
2017-09-24T02:17:12.289Z,32.17
2017-09-24T02:19:40.610Z,30.17
2017-09-24T02:22:08.905Z,31.50
2017-09-24T02:24:37.225Z,29.80
2017-09-24T02:27:05.525Z,26.97
2017-09-24T02:29:34.619Z,26.90
2017-09-24T02:32:03.699Z,23.47
2017-09-24T02:34:32.010Z,26.63
2017-09-24T02:37:00.317Z,25.73
2017-09-24T02:39:28.629Z,25.80
2017-09-24T02:42:02.841Z,26.60
2017-09-24T02:44:31.153Z,21.43
2017-09-24T02:46:59.476Z,25.87
2017-09-24T02:49:27.777Z,23.93
2017-09-24T02:51:56.088Z,27.87
2017-09-24T02:54:24.404Z,24.43
2017-09-24T02:56:52.720Z,25.10
2017-09-24T02:59:21.798Z,22.03
2017-09-24T03:01:50.142Z,19.23
2017-09-24T03:04:18.442Z,23.47
2017-09-24T03:06:46.749Z,24.07
2017-09-24T03:09:15.830Z,23.07
2017-09-24T03:11:44.909Z,25.20
2017-09-24T03:14:13.222Z,27.20
2017-09-24T03:16:42.287Z,23.27
2017-09-24T03:19:10.602Z,24.50
2017-09-24T03:21:38.905Z,25.57
2017-09-24T03:24:07.238Z,26.23
2017-09-24T03:26:36.309Z,24.50
2017-09-24T03:29:04.625Z,22.83
2017-09-24T03:31:33.709Z,25.23
2017-09-24T03:34:02.783Z,23.13
2017-09-24T03:36:31.092Z,20.13
2017-09-24T03:39:00.170Z,21.27
2017-09-24T03:41:28.480Z,21.37
2017-09-24T03:43:56.776Z,23.70
2017-09-24T03:46:25.098Z,20.17
2017-09-24T03:48:53.417Z,26.20
2017-09-24T03:51:21.757Z,25.33
2017-09-24T03:53:50.833Z,23.50
2017-09-24T03:56:19.129Z,24.53
2017-09-24T03:58:48.209Z,28.87
2017-09-24T04:01:16.512Z,28.20
2017-09-24T04:03:45.592Z,26.67
2017-09-24T04:06:13.904Z,28.90
2017-09-24T04:08:42.222Z,26.73
2017-09-24T04:11:10.524Z,30.23
2017-09-24T04:13:38.858Z,29.03
2017-09-24T04:16:07.177Z,35.30
2017-09-24T04:18:35.509Z,27.20
2017-09-24T04:21:03.831Z,30.17
2017-09-24T04:23:32.137Z,34.60
2017-09-24T04:26:00.448Z,41.70
2017-09-24T04:28:28.753Z,33.43
2017-09-24T04:30:57.074Z,32.27
2017-09-24T04:33:25.380Z,34.57
2017-09-24T04:35:53.717Z,33.20
2017-09-24T04:38:22.788Z,33.20
2017-09-24T04:40:51.112Z,31.83
2017-09-24T04:43:19.492Z,34.73
2017-09-24T04:45:47.801Z,34.70
2017-09-24T04:48:16.887Z,28.67
2017-09-24T04:50:45.211Z,37.87
2017-09-24T04:53:14.287Z,36.97
2017-09-24T04:55:42.592Z,36.43
2017-09-24T04:58:11.662Z,30.63
2017-09-24T05:00:39.995Z,34.90
2017-09-24T05:03:08.340Z,33.73
2017-09-24T05:05:37.409Z,31.37
2017-09-24T05:08:05.719Z,32.50
2017-09-24T05:10:34.116Z,30.07
2017-09-24T05:13:02.422Z,29.17
2017-09-24T05:15:30.751Z,34.90
2017-09-24T05:17:59.061Z,31.47
2017-09-24T05:20:27.370Z,31.97
2017-09-24T05:22:55.676Z,33.07
2017-09-24T05:25:24.777Z,35.17
2017-09-24T05:27:53.849Z,31.37
2017-09-24T05:30:22.148Z,35.63
2017-09-24T05:32:51.233Z,34.53
2017-09-24T05:35:20.306Z,31.47
2017-09-24T05:37:48.625Z,34.33
2017-09-24T05:40:16.925Z,41.20
2017-09-24T05:42:45.242Z,30.23
2017-09-24T05:45:14.316Z,38.90
2017-09-24T05:47:43.431Z,42.40
2017-09-24T05:50:11.746Z,35.80
2017-09-24T05:52:40.096Z,34.17
2017-09-24T05:55:08.397Z,38.77
2017-09-24T05:57:36.696Z,34.97
2017-09-24T06:00:05.009Z,36.33
2017-09-24T06:02:33.314Z,36.87
2017-09-24T06:05:02.402Z,34.43
2017-09-24T06:07:31.482Z,32.43
2017-09-24T06:09:59.801Z,34.70
2017-09-24T06:12:28.103Z,41.47
2017-09-24T06:14:56.448Z,43.40
2017-09-24T06:17:24.752Z,41.87
2017-09-24T06:19:53.092Z,41.67
2017-09-24T06:22:21.417Z,39.03
2017-09-24T06:24:49.721Z,40.10
2017-09-24T06:27:18.033Z,38.70
2017-09-24T06:29:46.349Z,40.17
2017-09-24T06:32:14.663Z,38.17
2017-09-24T06:34:42.977Z,32.77
2017-09-24T06:37:11.315Z,34.00
2017-09-24T06:39:39.621Z,38.80
2017-09-24T06:42:07.925Z,33.23
2017-09-24T06:44:36.246Z,37.30
2017-09-24T06:47:04.548Z,30.07
2017-09-24T06:49:33.948Z,33.90
2017-09-24T06:52:03.028Z,32.07
2017-09-24T06:54:31.356Z,35.83
2017-09-24T06:56:59.673Z,32.07
2017-09-24T06:59:27.998Z,34.97
2017-09-24T07:01:56.307Z,30.10
2017-09-24T07:04:24.652Z,27.00
2017-09-24T07:06:52.964Z,30.73
2017-09-24T07:09:21.269Z,27.87
2017-09-24T07:11:49.594Z,27.13
2017-09-24T07:14:17.906Z,31.67
2017-09-24T07:16:46.225Z,26.87
2017-09-24T07:19:15.300Z,27.83
2017-09-24T07:21:43.611Z,25.30
2017-09-24T07:24:11.926Z,22.90
2017-09-24T07:26:40.285Z,31.50
2017-09-24T07:29:08.593Z,27.77
2017-09-24T07:31:36.888Z,25.63
2017-09-24T07:34:05.197Z,34.23
2017-09-24T07:36:33.505Z,25.60
2017-09-24T07:39:01.804Z,33.37
2017-09-24T07:41:30.111Z,34.93
2017-09-24T07:43:58.430Z,32.50
2017-09-24T07:46:27.522Z,27.43
2017-09-24T07:48:56.626Z,34.10
2017-09-24T07:51:25.696Z,28.80
2017-09-24T07:53:54.005Z,33.47
2017-09-24T07:56:22.322Z,25.80
2017-09-24T07:58:50.633Z,28.73
2017-09-24T08:01:18.946Z,27.43
2017-09-24T08:03:47.255Z,32.27
2017-09-24T08:06:15.601Z,32.80
2017-09-24T08:08:43.906Z,28.70
2017-09-24T08:11:13.027Z,21.23
2017-09-24T08:13:41.358Z,38.10
2017-09-24T08:16:09.676Z,27.47
2017-09-24T08:18:38.000Z,26.57
2017-09-24T08:21:06.322Z,28.93
2017-09-24T08:23:34.660Z,23.10
2017-09-24T08:26:02.968Z,27.80
2017-09-24T08:28:31.295Z,20.47
2017-09-24T08:31:00.372Z,21.93
2017-09-24T08:33:28.709Z,20.50
2017-09-24T08:35:57.013Z,15.17
2017-09-24T08:38:25.318Z,18.40
2017-09-24T08:40:53.628Z,15.90
2017-09-24T08:43:22.692Z,16.27
2017-09-24T08:45:51.005Z,12.47
2017-09-24T08:48:20.072Z,20.80
2017-09-24T08:50:48.381Z,15.60
2017-09-24T08:53:17.453Z,13.47
2017-09-24T08:55:45.811Z,12.77
2017-09-24T08:58:14.110Z,11.50
2017-09-24T09:00:42.430Z,11.30
2017-09-24T09:03:10.750Z,11.27
2017-09-24T09:05:39.818Z,12.30
2017-09-24T09:08:08.137Z,13.53
2017-09-24T09:10:36.440Z,11.77
2017-09-24T09:13:04.762Z,12.53
2017-09-24T09:15:33.065Z,14.63
2017-09-24T09:18:01.386Z,14.90
2017-09-24T09:20:29.696Z,13.53
2017-09-24T09:22:58.761Z,9.80
2017-09-24T09:25:27.068Z,11.80
2017-09-24T09:27:55.371Z,14.20
2017-09-24T09:30:23.690Z,14.77
2017-09-24T09:32:51.995Z,12.73
2017-09-24T09:35:20.300Z,16.17
2017-09-24T09:37:48.596Z,14.20
2017-09-24T09:40:16.922Z,13.27
2017-09-24T09:42:45.224Z,21.10
2017-09-24T09:45:32.468Z,14.37
2017-09-24T09:48:00.772Z,23.43
2017-09-24T09:50:29.081Z,16.10
2017-09-24T09:52:58.161Z,17.93
2017-09-24T09:55:26.470Z,24.20
2017-09-24T09:57:55.554Z,19.50
2017-09-24T10:00:24.636Z,18.23
2017-09-24T10:02:52.959Z,20.83
2017-09-24T10:05:21.261Z,16.23
2017-09-24T10:08:07.290Z,15.67
2017-09-24T10:10:35.601Z,17.97
2017-09-24T10:13:03.921Z,22.27
2017-09-24T10:15:32.753Z,17.10
2017-09-24T10:18:01.845Z,18.63
2017-09-24T10:20:30.927Z,18.70
2017-09-24T10:23:00.032Z,18.40
2017-09-24T10:25:29.132Z,20.57
2017-09-24T10:27:58.210Z,18.07
2017-09-24T10:30:57.240Z,16.87
2017-09-24T10:33:25.572Z,14.57
2017-09-24T10:35:53.897Z,18.90
2017-09-24T10:38:22.200Z,18.90
2017-09-24T10:40:50.547Z,21.63
2017-09-24T10:43:18.854Z,14.53
2017-09-24T10:45:47.216Z,15.13
2017-09-24T10:48:15.534Z,16.10
2017-09-24T10:50:43.841Z,15.37
2017-09-24T10:53:12.921Z,16.67
2017-09-24T10:55:41.225Z,15.83
2017-09-24T10:58:09.533Z,16.90
2017-09-24T11:00:37.845Z,21.77
2017-09-24T11:03:06.218Z,17.63
2017-09-24T11:05:34.518Z,17.33
2017-09-24T11:08:03.595Z,15.97
2017-09-24T11:10:31.905Z,18.40
2017-09-24T11:13:00.217Z,19.90
2017-09-24T11:15:28.528Z,15.90
2017-09-24T11:17:56.819Z,18.00
2017-09-24T11:20:25.955Z,18.03
2017-09-24T11:22:54.262Z,14.50
2017-09-24T11:25:22.595Z,19.27
2017-09-24T11:27:50.892Z,18.33
2017-09-24T11:30:19.202Z,17.63
2017-09-24T11:32:47.522Z,15.93
2017-09-24T11:35:15.830Z,17.00
2017-09-24T11:37:44.137Z,22.63
2017-09-24T11:40:12.437Z,19.33
2017-09-24T11:42:41.529Z,16.20
2017-09-24T11:45:10.600Z,19.30
2017-09-24T11:47:38.934Z,20.33
2017-09-24T11:50:07.237Z,18.50
2017-09-24T11:52:35.537Z,21.10
2017-09-24T11:55:03.849Z,25.10
2017-09-24T11:57:32.157Z,21.70
2017-09-24T12:00:00.476Z,19.30
2017-09-24T12:02:28.773Z,20.67
2017-09-24T12:04:57.849Z,20.30
2017-09-24T12:07:26.151Z,23.77
2017-09-24T12:09:54.485Z,21.03
2017-09-24T12:12:22.797Z,22.53
2017-09-24T12:14:51.888Z,19.57
2017-09-24T12:17:20.965Z,17.57
2017-09-24T12:19:49.269Z,20.70
2017-09-24T12:22:17.645Z,25.17
2017-09-24T12:24:45.949Z,22.83
2017-09-24T12:27:14.259Z,19.30
2017-09-24T12:29:42.579Z,17.80
2017-09-24T12:32:10.880Z,19.80
2017-09-24T12:34:39.985Z,18.90
2017-09-24T12:37:09.073Z,19.03
2017-09-24T12:39:37.409Z,19.47
2017-09-24T12:42:06.494Z,22.40
2017-09-24T12:44:34.792Z,18.17
2017-09-24T12:47:03.456Z,16.97
2017-09-24T12:49:31.754Z,19.90
2017-09-24T12:52:00.061Z,20.97
2017-09-24T12:54:29.157Z,23.50
2017-09-24T12:56:58.226Z,20.00
2017-09-24T12:59:26.578Z,18.27
2017-09-24T13:01:54.886Z,25.17
2017-09-24T13:04:23.198Z,24.43
2017-09-24T13:06:51.554Z,27.17
2017-09-24T13:09:19.867Z,22.30
2017-09-24T13:11:48.249Z,25.90
2017-09-24T13:14:16.559Z,23.73
2017-09-24T13:16:45.638Z,24.17
2017-09-24T13:19:14.039Z,24.77
2017-09-24T13:21:42.376Z,23.97
2017-09-24T13:24:10.681Z,20.90
2017-09-24T13:26:38.981Z,25.63
2017-09-24T13:29:08.056Z,24.30
2017-09-24T13:31:36.355Z,22.10
2017-09-24T13:34:05.113Z,23.17
2017-09-24T13:36:33.405Z,24.77
2017-09-24T13:39:01.737Z,26.50
2017-09-24T13:41:30.796Z,23.70
2017-09-24T13:43:59.098Z,23.97
2017-09-24T13:46:27.409Z,22.57
2017-09-24T13:48:55.712Z,24.93
2017-09-24T13:51:24.051Z,23.57
2017-09-24T13:53:52.353Z,28.30
2017-09-24T13:56:20.680Z,23.63
2017-09-24T13:58:48.983Z,26.60
2017-09-24T14:01:17.291Z,21.90
2017-09-24T14:03:45.613Z,25.53
2017-09-24T14:06:13.925Z,21.37
2017-09-24T14:08:42.270Z,25.83
2017-09-24T14:11:10.576Z,25.33
2017-09-24T14:13:38.893Z,26.37
2017-09-24T14:16:07.209Z,24.60
2017-09-24T14:18:36.297Z,25.67
2017-09-24T14:21:05.443Z,24.83
2017-09-24T14:23:33.751Z,25.20
2017-09-24T14:26:02.056Z,28.20
2017-09-24T14:28:31.158Z,23.23
2017-09-24T14:31:00.230Z,26.13
2017-09-24T14:33:28.553Z,22.53
2017-09-24T14:35:56.898Z,23.40
2017-09-24T14:38:25.969Z,26.40
2017-09-24T14:40:54.289Z,26.93
2017-09-24T14:43:22.593Z,20.90
2017-09-24T14:45:50.924Z,28.13
2017-09-24T14:48:20.003Z,22.70
2017-09-24T14:50:48.313Z,25.17
2017-09-24T14:53:16.624Z,23.07
2017-09-24T14:55:44.917Z,37.90
2017-09-24T14:58:13.262Z,30.30
2017-09-24T15:00:41.568Z,26.80
2017-09-24T15:03:09.878Z,25.10
2017-09-24T15:05:38.188Z,26.03
2017-09-24T15:08:06.489Z,25.80
2017-09-24T15:10:34.829Z,22.90
2017-09-24T15:13:03.894Z,22.07
2017-09-24T15:15:32.197Z,22.43
2017-09-24T15:18:01.269Z,22.83
2017-09-24T15:20:29.580Z,19.17
2017-09-24T15:22:57.913Z,23.13
2017-09-24T15:25:26.216Z,19.00
2017-09-24T15:27:55.287Z,20.50
2017-09-24T15:30:23.630Z,24.77
2017-09-24T15:32:51.932Z,25.67
2017-09-24T15:35:20.265Z,23.67
2017-09-24T15:37:48.565Z,23.60
2017-09-24T15:40:16.884Z,26.00
2017-09-24T15:42:45.192Z,27.67
2017-09-24T15:45:13.498Z,28.53
2017-09-24T15:47:41.857Z,26.30
2017-09-24T15:50:10.160Z,28.60
2017-09-24T15:52:38.456Z,29.70
2017-09-24T15:55:06.765Z,28.87
2017-09-24T15:57:35.837Z,28.83
2017-09-24T16:00:04.177Z,35.03
2017-09-24T16:02:32.489Z,38.43
2017-09-24T16:05:00.792Z,32.67
2017-09-24T16:07:29.889Z,32.40
2017-09-24T16:09:58.959Z,31.90
2017-09-24T16:12:27.289Z,30.30
2017-09-24T16:14:55.633Z,33.80
2017-09-24T16:17:24.712Z,32.97
2017-09-24T16:19:53.024Z,32.63
2017-09-24T16:22:21.329Z,37.37
2017-09-24T16:24:49.662Z,34.57
2017-09-24T16:27:18.729Z,39.50
2017-09-24T16:29:47.068Z,43.20
2017-09-24T16:32:15.391Z,40.63
2017-09-24T16:34:43.696Z,43.90
2017-09-24T16:37:12.030Z,37.20
2017-09-24T16:39:40.332Z,39.50
2017-09-24T16:42:08.759Z,36.00
2017-09-24T16:44:37.116Z,39.17
2017-09-24T16:47:05.441Z,39.73
2017-09-24T16:49:33.784Z,37.50
2017-09-24T16:52:02.092Z,40.70
2017-09-24T16:54:30.393Z,43.20
2017-09-24T16:56:58.721Z,44.00
2017-09-24T16:59:27.039Z,39.40
2017-09-24T17:01:55.373Z,41.80
2017-09-24T17:04:23.687Z,41.17
2017-09-24T17:06:52.000Z,42.73
2017-09-24T17:09:21.085Z,46.63
2017-09-24T17:11:50.165Z,40.77
2017-09-24T17:14:18.505Z,42.40
2017-09-24T17:16:46.816Z,40.93
2017-09-24T17:19:15.125Z,44.13
2017-09-24T17:21:44.201Z,45.40
2017-09-24T17:24:12.531Z,38.90
2017-09-24T17:26:40.874Z,38.73
2017-09-24T17:29:09.977Z,45.10
2017-09-24T17:31:39.058Z,41.90
2017-09-24T17:34:08.149Z,40.10
2017-09-24T17:36:36.469Z,41.70
2017-09-24T17:39:04.852Z,37.83
2017-09-24T17:41:33.160Z,42.67
2017-09-24T17:44:01.473Z,35.63
2017-09-24T17:46:30.549Z,40.20
2017-09-24T17:48:58.853Z,41.20
2017-09-24T17:51:27.954Z,35.03
2017-09-24T17:53:56.265Z,40.47
2017-09-24T17:56:24.577Z,38.57
2017-09-24T17:58:52.905Z,42.93
2017-09-24T18:01:21.218Z,40.10
2017-09-24T18:03:49.558Z,43.10
2017-09-24T18:06:17.864Z,42.60
2017-09-24T18:08:46.185Z,45.13
2017-09-24T18:11:15.264Z,41.77
2017-09-24T18:13:43.569Z,41.70
2017-09-24T18:16:11.926Z,40.33
2017-09-24T18:18:41.006Z,52.40
2017-09-24T18:21:09.309Z,56.13
2017-09-24T18:23:38.379Z,64.50
2017-09-24T18:26:06.681Z,71.83
2017-09-24T18:28:35.777Z,63.90
2017-09-24T18:31:04.840Z,63.80
2017-09-24T18:33:33.145Z,62.20
2017-09-24T18:36:02.225Z,59.30
2017-09-24T18:38:30.542Z,58.10
2017-09-24T18:40:58.882Z,70.30
2017-09-24T18:43:27.793Z,58.00
2017-09-24T18:45:56.104Z,63.00
2017-09-24T18:48:24.419Z,58.77
2017-09-24T18:50:52.730Z,61.27
2017-09-24T18:53:21.080Z,61.33
2017-09-24T18:55:49.379Z,61.87
2017-09-24T18:58:17.684Z,61.17
2017-09-24T19:00:45.997Z,71.23
2017-09-24T19:03:14.306Z,69.37
2017-09-24T19:05:43.404Z,73.33
2017-09-24T19:08:12.474Z,67.57
2017-09-24T19:10:40.778Z,63.57
2017-09-24T19:13:09.110Z,71.00
2017-09-24T19:15:37.409Z,69.40
2017-09-24T19:18:05.753Z,66.07
2017-09-24T19:20:34.052Z,68.17
2017-09-24T19:23:02.365Z,66.23
2017-09-24T19:25:31.443Z,75.23
2017-09-24T19:28:00.514Z,82.10
2017-09-24T19:30:28.888Z,63.70
2017-09-24T19:32:57.196Z,66.57
2017-09-24T19:35:26.273Z,60.67
2017-09-24T19:37:54.930Z,61.67
2017-09-24T19:40:23.229Z,72.27
2017-09-24T19:42:51.561Z,62.50
2017-09-24T19:45:19.869Z,65.50
2017-09-24T19:47:48.215Z,65.57
2017-09-24T19:50:16.559Z,62.67
2017-09-24T19:52:45.679Z,63.30
2017-09-24T19:55:14.053Z,70.37
2017-09-24T19:57:43.142Z,62.37
2017-09-24T20:00:12.415Z,74.97
2017-09-24T20:02:40.746Z,68.10
2017-09-24T20:05:09.052Z,66.07
2017-09-24T20:07:37.399Z,74.27
2017-09-24T20:10:05.720Z,67.10
2017-09-24T20:12:34.055Z,70.80
2017-09-24T20:15:02.375Z,68.27
2017-09-24T20:17:30.682Z,70.20
2017-09-24T20:19:59.794Z,73.90
2017-09-24T20:22:28.110Z,71.37
2017-09-24T20:24:56.424Z,68.97
2017-09-24T20:27:25.513Z,73.30
2017-09-24T20:29:54.590Z,79.60
2017-09-24T20:32:22.925Z,65.70
2017-09-24T20:34:51.233Z,68.80
2017-09-24T20:37:19.588Z,71.27
2017-09-24T20:39:47.901Z,65.43
2017-09-24T20:42:16.225Z,65.80
2017-09-24T20:44:44.533Z,59.57
2017-09-24T20:47:12.869Z,70.33
2017-09-24T20:49:41.965Z,61.23
2017-09-24T20:52:11.046Z,59.50
2017-09-24T20:54:40.129Z,66.57
2017-09-24T20:57:08.437Z,64.53
2017-09-24T20:59:36.811Z,60.23
2017-09-24T21:02:05.893Z,64.33
2017-09-24T21:04:34.217Z,61.93
2017-09-24T21:07:02.524Z,63.03
2017-09-24T21:09:30.838Z,62.87
2017-09-24T21:11:59.949Z,70.83
2017-09-24T21:14:28.244Z,68.47
2017-09-24T21:16:56.546Z,62.50
2017-09-24T21:19:24.864Z,71.07
2017-09-24T21:21:53.938Z,72.17
2017-09-24T21:24:22.295Z,72.77
2017-09-24T21:26:50.588Z,60.97
2017-09-24T21:29:18.910Z,78.23
2017-09-24T21:31:47.241Z,77.73
2017-09-24T21:34:15.558Z,72.10
2017-09-24T21:36:43.892Z,71.70
2017-09-24T21:39:12.188Z,67.93
2017-09-24T21:41:41.303Z,62.13
2017-09-24T21:44:10.377Z,75.17
2017-09-24T21:46:39.452Z,71.27
2017-09-24T21:49:07.769Z,71.17
2017-09-24T21:51:36.906Z,72.67
2017-09-24T21:54:05.249Z,69.70
2017-09-24T21:56:33.557Z,80.00
2017-09-24T21:59:01.853Z,69.03
2017-09-24T22:01:30.164Z,67.17
2017-09-24T22:03:59.236Z,64.30
2017-09-24T22:06:27.578Z,60.43
2017-09-24T22:08:55.877Z,63.13
2017-09-24T22:11:24.219Z,68.43
2017-09-24T22:13:52.511Z,62.80
2017-09-24T22:16:20.818Z,69.07
2017-09-24T22:18:49.133Z,65.17
2017-09-24T22:21:18.210Z,73.97
2017-09-24T22:23:47.342Z,69.60
2017-09-24T22:26:15.645Z,73.83
2017-09-24T22:28:43.940Z,86.30
2017-09-24T22:31:12.268Z,76.67
2017-09-24T22:33:40.569Z,95.00
2017-09-24T22:36:08.900Z,85.17
2017-09-24T22:38:37.968Z,99.77
2017-09-24T22:41:06.293Z,83.33
2017-09-24T22:43:34.621Z,86.77
2017-09-24T22:46:02.941Z,93.90
2017-09-24T22:48:32.032Z,89.90
2017-09-24T22:51:01.098Z,82.87
2017-09-24T22:53:29.441Z,94.43
2017-09-24T22:55:57.753Z,92.50
2017-09-24T22:58:26.073Z,89.17
2017-09-24T23:00:54.391Z,92.27
2017-09-24T23:03:22.706Z,85.97
2017-09-24T23:05:51.793Z,83.73
2017-09-24T23:08:20.096Z,74.73
2017-09-24T23:10:48.436Z,90.80
2017-09-24T23:13:16.751Z,80.67
2017-09-24T23:15:45.085Z,69.30
2017-09-24T23:18:13.385Z,73.03
2017-09-24T23:20:42.456Z,78.90
2017-09-24T23:23:10.798Z,82.33
2017-09-24T23:25:39.127Z,78.30
2017-09-24T23:28:08.227Z,82.80
2017-09-24T23:30:37.302Z,97.47
2017-09-24T23:33:05.641Z,88.00
2017-09-24T23:35:33.949Z,85.37
2017-09-24T23:38:02.260Z,100.57
2017-09-24T23:40:30.572Z,97.83
2017-09-24T23:42:58.865Z,94.70
2017-09-24T23:45:27.198Z,93.27
2017-09-24T23:47:56.282Z,103.17
2017-09-24T23:50:25.362Z,96.10
2017-09-24T23:52:53.705Z,115.30
2017-09-24T23:55:22.051Z,96.73
2017-09-24T23:57:51.124Z,101.83
